sensor_id;sensor_type;location;lat;lon;timestamp;temperature;humidity
51615;DHT22;37695;52.960;6.188;2022-09-14T00:01:35;12.50;99.90
51615;DHT22;37695;52.960;6.188;2022-09-14T00:04:04;12.60;99.90
51615;DHT22;37695;52.960;6.188;2022-09-14T00:06:30;12.50;99.90
51615;DHT22;37695;52.960;6.188;2022-09-14T00:08:58;12.50;99.90
51615;DHT22;37695;52.960;6.188;2022-09-14T00:11:28;12.50;99.90
51615;DHT22;37695;52.960;6.188;2022-09-14T00:13:56;12.40;99.90
51615;DHT22;37695;52.960;6.188;2022-09-14T00:16:24;12.40;99.90
51615;DHT22;37695;52.960;6.188;2022-09-14T00:18:52;12.30;99.90
51615;DHT22;37695;52.960;6.188;2022-09-14T00:21:18;12.30;99.90
51615;DHT22;37695;52.960;6.188;2022-09-14T00:23:45;12.20;99.90
51615;DHT22;37695;52.960;6.188;2022-09-14T00:26:13;12.30;99.90
51615;DHT22;37695;52.960;6.188;2022-09-14T00:28:45;12.30;99.90
51615;DHT22;37695;52.960;6.188;2022-09-14T00:31:11;12.40;99.90
51615;DHT22;37695;52.960;6.188;2022-09-14T00:33:37;12.40;99.90
51615;DHT22;37695;52.960;6.188;2022-09-14T00:36:11;12.40;99.90
51615;DHT22;37695;52.960;6.188;2022-09-14T00:38:37;12.40;99.90
51615;DHT22;37695;52.960;6.188;2022-09-14T00:41:05;12.30;99.90
51615;DHT22;37695;52.960;6.188;2022-09-14T00:43:31;12.30;99.90
51615;DHT22;37695;52.960;6.188;2022-09-14T00:45:59;12.20;99.90
51615;DHT22;37695;52.960;6.188;2022-09-14T00:48:27;12.30;99.90
51615;DHT22;37695;52.960;6.188;2022-09-14T00:50:54;12.30;99.90
51615;DHT22;37695;52.960;6.188;2022-09-14T00:53:20;12.30;99.90
51615;DHT22;37695;52.960;6.188;2022-09-14T00:55:46;12.40;99.90
51615;DHT22;37695;52.960;6.188;2022-09-14T00:58:12;12.50;99.90
51615;DHT22;37695;52.960;6.188;2022-09-14T01:00:38;12.40;99.90
51615;DHT22;37695;52.960;6.188;2022-09-14T01:03:03;12.50;99.90
51615;DHT22;37695;52.960;6.188;2022-09-14T01:05:56;12.50;99.90
51615;DHT22;37695;52.960;6.188;2022-09-14T01:12:01;12.50;99.90
51615;DHT22;37695;52.960;6.188;2022-09-14T01:14:16;13.30;99.90
51615;DHT22;37695;52.960;6.188;2022-09-14T01:16:57;12.50;99.90
51615;DHT22;37695;52.960;6.188;2022-09-14T01:22:48;12.50;99.90
51615;DHT22;37695;52.960;6.188;2022-09-14T01:27:55;12.50;99.90
51615;DHT22;37695;52.960;6.188;2022-09-14T01:30:24;12.60;99.90
51615;DHT22;37695;52.960;6.188;2022-09-14T01:33:01;12.60;99.90
51615;DHT22;37695;52.960;6.188;2022-09-14T01:35:32;12.60;99.90
51615;DHT22;37695;52.960;6.188;2022-09-14T01:38:02;12.60;99.90
51615;DHT22;37695;52.960;6.188;2022-09-14T01:40:38;12.60;99.90
51615;DHT22;37695;52.960;6.188;2022-09-14T01:43:13;12.70;99.90
51615;DHT22;37695;52.960;6.188;2022-09-14T01:45:44;12.70;99.90
51615;DHT22;37695;52.960;6.188;2022-09-14T01:48:11;12.70;99.90
51615;DHT22;37695;52.960;6.188;2022-09-14T01:50:41;12.80;99.90
51615;DHT22;37695;52.960;6.188;2022-09-14T01:53:34;12.80;99.90
51615;DHT22;37695;52.960;6.188;2022-09-14T02:01:18;12.90;99.90
51615;DHT22;37695;52.960;6.188;2022-09-14T02:03:48;12.90;99.90
51615;DHT22;37695;52.960;6.188;2022-09-14T02:06:28;12.90;99.90
51615;DHT22;37695;52.960;6.188;2022-09-14T02:08:56;12.90;99.90
51615;DHT22;37695;52.960;6.188;2022-09-14T02:11:23;12.90;99.90
51615;DHT22;37695;52.960;6.188;2022-09-14T02:13:49;13.00;99.90
51615;DHT22;37695;52.960;6.188;2022-09-14T02:16:14;13.00;99.90
51615;DHT22;37695;52.960;6.188;2022-09-14T02:18:40;12.90;99.90
51615;DHT22;37695;52.960;6.188;2022-09-14T02:21:26;12.90;99.90
51615;DHT22;37695;52.960;6.188;2022-09-14T02:23:52;12.90;99.90
51615;DHT22;37695;52.960;6.188;2022-09-14T02:26:19;12.90;99.90
51615;DHT22;37695;52.960;6.188;2022-09-14T02:28:45;12.90;99.90
51615;DHT22;37695;52.960;6.188;2022-09-14T02:34:14;12.90;99.90
51615;DHT22;37695;52.960;6.188;2022-09-14T02:45:20;12.90;99.90
51615;DHT22;37695;52.960;6.188;2022-09-14T02:47:56;12.90;99.90
51615;DHT22;37695;52.960;6.188;2022-09-14T02:55:39;12.90;99.90
51615;DHT22;37695;52.960;6.188;2022-09-14T02:58:11;12.90;99.90
51615;DHT22;37695;52.960;6.188;2022-09-14T03:00:55;12.90;99.90
51615;DHT22;37695;52.960;6.188;2022-09-14T03:03:20;12.90;99.90
51615;DHT22;37695;52.960;6.188;2022-09-14T03:05:46;12.90;99.90
51615;DHT22;37695;52.960;6.188;2022-09-14T03:08:12;13.20;99.90
51615;DHT22;37695;52.960;6.188;2022-09-14T03:10:41;12.90;99.90
51615;DHT22;37695;52.960;6.188;2022-09-14T03:13:06;12.90;99.90
51615;DHT22;37695;52.960;6.188;2022-09-14T03:15:32;12.90;99.90
51615;DHT22;37695;52.960;6.188;2022-09-14T03:17:57;12.90;99.90
51615;DHT22;37695;52.960;6.188;2022-09-14T03:20:27;13.00;99.90
51615;DHT22;37695;52.960;6.188;2022-09-14T03:22:53;13.00;99.90
51615;DHT22;37695;52.960;6.188;2022-09-14T03:25:19;13.00;99.90
51615;DHT22;37695;52.960;6.188;2022-09-14T03:27:52;13.00;99.90
51615;DHT22;37695;52.960;6.188;2022-09-14T03:30:18;13.00;99.90
51615;DHT22;37695;52.960;6.188;2022-09-14T03:32:44;13.00;99.90
51615;DHT22;37695;52.960;6.188;2022-09-14T03:35:10;13.00;99.90
51615;DHT22;37695;52.960;6.188;2022-09-14T03:37:37;13.10;99.90
51615;DHT22;37695;52.960;6.188;2022-09-14T03:40:04;13.10;99.90
51615;DHT22;37695;52.960;6.188;2022-09-14T03:42:30;13.10;99.90
51615;DHT22;37695;52.960;6.188;2022-09-14T03:44:56;13.10;99.90
51615;DHT22;37695;52.960;6.188;2022-09-14T03:47:22;13.20;99.90
51615;DHT22;37695;52.960;6.188;2022-09-14T03:49:48;13.20;99.90
51615;DHT22;37695;52.960;6.188;2022-09-14T03:52:14;13.20;99.90
51615;DHT22;37695;52.960;6.188;2022-09-14T03:54:39;13.20;99.90
51615;DHT22;37695;52.960;6.188;2022-09-14T03:57:05;13.30;99.90
51615;DHT22;37695;52.960;6.188;2022-09-14T03:59:32;13.30;99.90
51615;DHT22;37695;52.960;6.188;2022-09-14T04:01:57;13.30;99.90
51615;DHT22;37695;52.960;6.188;2022-09-14T04:04:23;13.30;99.90
51615;DHT22;37695;52.960;6.188;2022-09-14T04:06:49;13.30;99.90
51615;DHT22;37695;52.960;6.188;2022-09-14T04:09:14;13.30;99.90
51615;DHT22;37695;52.960;6.188;2022-09-14T04:11:40;13.30;99.90
51615;DHT22;37695;52.960;6.188;2022-09-14T04:14:05;13.40;99.90
51615;DHT22;37695;52.960;6.188;2022-09-14T04:16:33;13.40;99.90
51615;DHT22;37695;52.960;6.188;2022-09-14T04:18:58;13.40;99.90
51615;DHT22;37695;52.960;6.188;2022-09-14T04:21:24;13.40;99.90
51615;DHT22;37695;52.960;6.188;2022-09-14T04:23:54;13.40;99.90
51615;DHT22;37695;52.960;6.188;2022-09-14T04:26:22;13.40;99.90
51615;DHT22;37695;52.960;6.188;2022-09-14T04:28:48;13.40;99.90
51615;DHT22;37695;52.960;6.188;2022-09-14T04:31:13;13.40;99.90
51615;DHT22;37695;52.960;6.188;2022-09-14T04:33:41;13.40;99.90
51615;DHT22;37695;52.960;6.188;2022-09-14T04:36:09;13.50;99.90
51615;DHT22;37695;52.960;6.188;2022-09-14T04:38:37;13.50;99.90
51615;DHT22;37695;52.960;6.188;2022-09-14T04:41:14;13.50;99.90
51615;DHT22;37695;52.960;6.188;2022-09-14T04:43:41;13.50;99.90
51615;DHT22;37695;52.960;6.188;2022-09-14T04:46:11;13.50;99.90
51615;DHT22;37695;52.960;6.188;2022-09-14T04:48:37;13.50;99.90
51615;DHT22;37695;52.960;6.188;2022-09-14T04:51:08;13.50;99.90
51615;DHT22;37695;52.960;6.188;2022-09-14T04:53:35;13.50;99.90
51615;DHT22;37695;52.960;6.188;2022-09-14T04:56:04;13.50;99.90
51615;DHT22;37695;52.960;6.188;2022-09-14T04:58:29;13.50;99.90
51615;DHT22;37695;52.960;6.188;2022-09-14T05:01:06;13.50;99.90
51615;DHT22;37695;52.960;6.188;2022-09-14T05:03:36;13.50;99.90
51615;DHT22;37695;52.960;6.188;2022-09-14T05:06:12;13.50;99.90
51615;DHT22;37695;52.960;6.188;2022-09-14T05:08:38;13.50;99.90
51615;DHT22;37695;52.960;6.188;2022-09-14T05:11:05;13.50;99.90
51615;DHT22;37695;52.960;6.188;2022-09-14T05:13:32;13.50;99.90
51615;DHT22;37695;52.960;6.188;2022-09-14T05:16:08;13.50;99.90
51615;DHT22;37695;52.960;6.188;2022-09-14T05:18:36;13.50;99.90
51615;DHT22;37695;52.960;6.188;2022-09-14T05:21:03;13.50;99.90
51615;DHT22;37695;52.960;6.188;2022-09-14T05:23:29;13.50;99.90
51615;DHT22;37695;52.960;6.188;2022-09-14T05:25:55;13.50;99.90
51615;DHT22;37695;52.960;6.188;2022-09-14T05:28:20;13.50;99.90
51615;DHT22;37695;52.960;6.188;2022-09-14T05:30:46;13.60;99.90
51615;DHT22;37695;52.960;6.188;2022-09-14T05:33:12;13.60;99.90
51615;DHT22;37695;52.960;6.188;2022-09-14T05:35:37;13.60;99.90
51615;DHT22;37695;52.960;6.188;2022-09-14T05:38:03;13.60;99.90
51615;DHT22;37695;52.960;6.188;2022-09-14T05:40:28;13.60;99.90
51615;DHT22;37695;52.960;6.188;2022-09-14T05:42:54;13.60;99.90
51615;DHT22;37695;52.960;6.188;2022-09-14T05:45:19;13.60;99.90
51615;DHT22;37695;52.960;6.188;2022-09-14T05:47:45;13.70;99.90
51615;DHT22;37695;52.960;6.188;2022-09-14T05:50:10;13.70;99.90
51615;DHT22;37695;52.960;6.188;2022-09-14T05:52:36;13.70;99.90
51615;DHT22;37695;52.960;6.188;2022-09-14T05:55:02;13.70;99.90
51615;DHT22;37695;52.960;6.188;2022-09-14T05:57:27;13.80;99.90
51615;DHT22;37695;52.960;6.188;2022-09-14T05:59:53;13.80;99.90
51615;DHT22;37695;52.960;6.188;2022-09-14T06:02:18;13.80;99.90
51615;DHT22;37695;52.960;6.188;2022-09-14T06:04:44;13.80;99.90
51615;DHT22;37695;52.960;6.188;2022-09-14T06:07:10;13.90;99.90
51615;DHT22;37695;52.960;6.188;2022-09-14T06:09:35;13.90;99.90
51615;DHT22;37695;52.960;6.188;2022-09-14T06:12:01;14.00;99.90
51615;DHT22;37695;52.960;6.188;2022-09-14T06:14:27;14.00;99.90
51615;DHT22;37695;52.960;6.188;2022-09-14T06:16:52;14.00;99.90
51615;DHT22;37695;52.960;6.188;2022-09-14T06:19:18;14.10;99.90
51615;DHT22;37695;52.960;6.188;2022-09-14T06:21:43;14.10;99.90
51615;DHT22;37695;52.960;6.188;2022-09-14T06:24:09;14.10;99.90
51615;DHT22;37695;52.960;6.188;2022-09-14T06:26:37;14.20;99.90
51615;DHT22;37695;52.960;6.188;2022-09-14T06:29:03;14.20;99.90
51615;DHT22;37695;52.960;6.188;2022-09-14T06:31:29;14.30;99.90
51615;DHT22;37695;52.960;6.188;2022-09-14T06:33:54;14.30;99.90
51615;DHT22;37695;52.960;6.188;2022-09-14T06:36:25;14.40;99.90
51615;DHT22;37695;52.960;6.188;2022-09-14T06:38:51;14.40;99.90
51615;DHT22;37695;52.960;6.188;2022-09-14T06:41:20;14.40;99.90
51615;DHT22;37695;52.960;6.188;2022-09-14T06:43:46;14.40;99.90
51615;DHT22;37695;52.960;6.188;2022-09-14T06:46:21;14.50;99.90
51615;DHT22;37695;52.960;6.188;2022-09-14T06:49:06;14.60;99.90
51615;DHT22;37695;52.960;6.188;2022-09-14T06:51:40;14.60;99.90
51615;DHT22;37695;52.960;6.188;2022-09-14T06:54:06;14.70;99.90
51615;DHT22;37695;52.960;6.188;2022-09-14T06:56:34;14.70;99.90
51615;DHT22;37695;52.960;6.188;2022-09-14T06:59:00;14.80;99.90
51615;DHT22;37695;52.960;6.188;2022-09-14T07:01:26;14.90;99.90
51615;DHT22;37695;52.960;6.188;2022-09-14T07:03:52;15.00;99.90
51615;DHT22;37695;52.960;6.188;2022-09-14T07:06:20;15.00;99.90
51615;DHT22;37695;52.960;6.188;2022-09-14T07:08:47;15.10;99.90
51615;DHT22;37695;52.960;6.188;2022-09-14T07:11:14;15.20;99.90
51615;DHT22;37695;52.960;6.188;2022-09-14T07:13:42;15.20;99.90
51615;DHT22;37695;52.960;6.188;2022-09-14T07:16:08;15.30;99.90
51615;DHT22;37695;52.960;6.188;2022-09-14T07:18:34;15.30;99.90
51615;DHT22;37695;52.960;6.188;2022-09-14T07:23:35;15.50;99.90
51615;DHT22;37695;52.960;6.188;2022-09-14T07:26:06;15.60;99.90
51615;DHT22;37695;52.960;6.188;2022-09-14T07:28:33;15.60;99.90
51615;DHT22;37695;52.960;6.188;2022-09-14T07:30:59;15.70;99.90
51615;DHT22;37695;52.960;6.188;2022-09-14T07:33:25;15.70;99.90
51615;DHT22;37695;52.960;6.188;2022-09-14T07:35:51;15.80;99.90
51615;DHT22;37695;52.960;6.188;2022-09-14T07:38:18;15.80;99.90
51615;DHT22;37695;52.960;6.188;2022-09-14T07:40:43;15.90;99.90
51615;DHT22;37695;52.960;6.188;2022-09-14T07:43:09;16.00;99.90
51615;DHT22;37695;52.960;6.188;2022-09-14T07:45:36;16.00;99.90
51615;DHT22;37695;52.960;6.188;2022-09-14T07:48:02;16.10;99.90
51615;DHT22;37695;52.960;6.188;2022-09-14T07:50:28;16.10;99.90
51615;DHT22;37695;52.960;6.188;2022-09-14T07:52:53;16.20;99.90
51615;DHT22;37695;52.960;6.188;2022-09-14T07:55:19;16.30;99.90
51615;DHT22;37695;52.960;6.188;2022-09-14T07:57:44;16.30;99.90
51615;DHT22;37695;52.960;6.188;2022-09-14T08:00:11;16.30;99.90
51615;DHT22;37695;52.960;6.188;2022-09-14T08:02:37;16.40;99.90
51615;DHT22;37695;52.960;6.188;2022-09-14T08:05:03;16.40;99.90
51615;DHT22;37695;52.960;6.188;2022-09-14T08:07:28;16.40;99.90
51615;DHT22;37695;52.960;6.188;2022-09-14T08:09:54;16.50;99.90
51615;DHT22;37695;52.960;6.188;2022-09-14T08:12:20;16.50;99.90
51615;DHT22;37695;52.960;6.188;2022-09-14T08:14:46;16.60;99.90
51615;DHT22;37695;52.960;6.188;2022-09-14T08:17:11;16.60;99.90
51615;DHT22;37695;52.960;6.188;2022-09-14T08:19:37;16.60;99.90
51615;DHT22;37695;52.960;6.188;2022-09-14T08:22:03;16.60;99.90
51615;DHT22;37695;52.960;6.188;2022-09-14T08:24:29;16.70;99.90
51615;DHT22;37695;52.960;6.188;2022-09-14T08:26:55;16.80;99.90
51615;DHT22;37695;52.960;6.188;2022-09-14T08:29:21;16.80;99.90
51615;DHT22;37695;52.960;6.188;2022-09-14T08:31:47;16.90;99.90
51615;DHT22;37695;52.960;6.188;2022-09-14T08:34:16;17.00;99.90
51615;DHT22;37695;52.960;6.188;2022-09-14T08:36:43;17.00;99.90
51615;DHT22;37695;52.960;6.188;2022-09-14T08:39:10;17.10;99.90
51615;DHT22;37695;52.960;6.188;2022-09-14T08:41:45;17.10;99.90
51615;DHT22;37695;52.960;6.188;2022-09-14T08:46:47;17.20;99.90
51615;DHT22;37695;52.960;6.188;2022-09-14T08:49:44;17.20;99.90
51615;DHT22;37695;52.960;6.188;2022-09-14T08:54:50;17.20;99.90
51615;DHT22;37695;52.960;6.188;2022-09-14T08:57:20;17.30;99.90
51615;DHT22;37695;52.960;6.188;2022-09-14T09:00:05;17.40;99.90
51615;DHT22;37695;52.960;6.188;2022-09-14T09:08:15;17.80;99.90
51615;DHT22;37695;52.960;6.188;2022-09-14T09:10:42;17.90;99.90
51615;DHT22;37695;52.960;6.188;2022-09-14T09:13:13;18.10;99.90
51615;DHT22;37695;52.960;6.188;2022-09-14T09:15:44;18.20;99.90
51615;DHT22;37695;52.960;6.188;2022-09-14T09:18:25;18.20;99.90
51615;DHT22;37695;52.960;6.188;2022-09-14T09:21:34;18.20;99.90
51615;DHT22;37695;52.960;6.188;2022-09-14T09:26:51;18.40;99.90
51615;DHT22;37695;52.960;6.188;2022-09-14T09:29:17;18.60;99.90
51615;DHT22;37695;52.960;6.188;2022-09-14T09:31:46;18.70;99.90
51615;DHT22;37695;52.960;6.188;2022-09-14T09:34:14;18.90;99.90
51615;DHT22;37695;52.960;6.188;2022-09-14T09:36:46;19.10;99.90
51615;DHT22;37695;52.960;6.188;2022-09-14T09:39:13;19.20;99.90
51615;DHT22;37695;52.960;6.188;2022-09-14T09:41:47;19.40;99.90
51615;DHT22;37695;52.960;6.188;2022-09-14T09:44:13;19.50;99.90
51615;DHT22;37695;52.960;6.188;2022-09-14T09:47:08;19.40;99.90
51615;DHT22;37695;52.960;6.188;2022-09-14T09:49:37;19.40;99.90
51615;DHT22;37695;52.960;6.188;2022-09-14T09:52:16;19.30;99.90
51615;DHT22;37695;52.960;6.188;2022-09-14T09:54:48;19.40;99.90
51615;DHT22;37695;52.960;6.188;2022-09-14T10:00:27;19.40;99.90
51615;DHT22;37695;52.960;6.188;2022-09-14T10:02:53;19.40;99.90
51615;DHT22;37695;52.960;6.188;2022-09-14T10:05:25;19.40;99.90
51615;DHT22;37695;52.960;6.188;2022-09-14T10:07:55;19.40;99.90
51615;DHT22;37695;52.960;6.188;2022-09-14T10:13:02;19.60;99.90
51615;DHT22;37695;52.960;6.188;2022-09-14T10:15:32;19.50;99.90
51615;DHT22;37695;52.960;6.188;2022-09-14T10:18:15;19.60;99.90
51615;DHT22;37695;52.960;6.188;2022-09-14T10:20:43;19.70;99.90
51615;DHT22;37695;52.960;6.188;2022-09-14T10:25:44;19.80;99.90
51615;DHT22;37695;52.960;6.188;2022-09-14T10:28:30;19.70;99.90
51615;DHT22;37695;52.960;6.188;2022-09-14T10:31:06;19.70;99.90
51615;DHT22;37695;52.960;6.188;2022-09-14T10:33:34;19.60;99.90
51615;DHT22;37695;52.960;6.188;2022-09-14T10:41:27;19.50;99.90
51615;DHT22;37695;52.960;6.188;2022-09-14T10:44:17;19.40;99.90
51615;DHT22;37695;52.960;6.188;2022-09-14T11:04:20;20.80;99.90
51615;DHT22;37695;52.960;6.188;2022-09-14T11:07:12;20.80;99.90
51615;DHT22;37695;52.960;6.188;2022-09-14T11:13:23;20.40;99.90
51615;DHT22;37695;52.960;6.188;2022-09-14T11:16:08;20.20;99.90
51615;DHT22;37695;52.960;6.188;2022-09-14T11:21:19;19.90;99.90
51615;DHT22;37695;52.960;6.188;2022-09-14T11:23:56;19.80;99.90
51615;DHT22;37695;52.960;6.188;2022-09-14T11:31:27;19.80;99.90
51615;DHT22;37695;52.960;6.188;2022-09-14T11:34:23;19.80;99.90
51615;DHT22;37695;52.960;6.188;2022-09-14T11:36:57;19.70;99.90
51615;DHT22;37695;52.960;6.188;2022-09-14T11:39:37;19.80;99.90
51615;DHT22;37695;52.960;6.188;2022-09-14T11:42:11;19.80;99.90
51615;DHT22;37695;52.960;6.188;2022-09-14T11:44:39;19.90;99.90
51615;DHT22;37695;52.960;6.188;2022-09-14T11:47:06;19.90;99.90
51615;DHT22;37695;52.960;6.188;2022-09-14T11:52:29;20.10;99.90
51615;DHT22;37695;52.960;6.188;2022-09-14T11:54:56;20.10;99.90
51615;DHT22;37695;52.960;6.188;2022-09-14T11:57:27;20.10;99.90
51615;DHT22;37695;52.960;6.188;2022-09-14T11:59:54;20.00;99.90
51615;DHT22;37695;52.960;6.188;2022-09-14T12:12:40;19.90;99.90
51615;DHT22;37695;52.960;6.188;2022-09-14T12:17:38;20.00;99.90
51615;DHT22;37695;52.960;6.188;2022-09-14T12:20:36;20.00;99.90
51615;DHT22;37695;52.960;6.188;2022-09-14T12:25:51;20.40;99.90
51615;DHT22;37695;52.960;6.188;2022-09-14T12:41:02;21.00;99.90
51615;DHT22;37695;52.960;6.188;2022-09-14T12:51:31;20.50;99.90
51615;DHT22;37695;52.960;6.188;2022-09-14T12:54:30;20.50;99.90
51615;DHT22;37695;52.960;6.188;2022-09-14T13:00:10;20.50;99.90
51615;DHT22;37695;52.960;6.188;2022-09-14T13:03:07;20.50;99.90
51615;DHT22;37695;52.960;6.188;2022-09-14T13:05:34;20.50;99.90
51615;DHT22;37695;52.960;6.188;2022-09-14T13:08:01;20.50;99.90
51615;DHT22;37695;52.960;6.188;2022-09-14T13:10:35;20.50;99.90
51615;DHT22;37695;52.960;6.188;2022-09-14T13:13:05;20.40;99.90
51615;DHT22;37695;52.960;6.188;2022-09-14T13:15:35;20.40;99.90
51615;DHT22;37695;52.960;6.188;2022-09-14T13:20:52;20.40;99.90
51615;DHT22;37695;52.960;6.188;2022-09-14T13:23:20;20.40;99.90
51615;DHT22;37695;52.960;6.188;2022-09-14T13:25:45;20.40;99.90
51615;DHT22;37695;52.960;6.188;2022-09-14T13:28:16;20.40;99.90
51615;DHT22;37695;52.960;6.188;2022-09-14T13:30:55;20.50;99.90
51615;DHT22;37695;52.960;6.188;2022-09-14T13:33:22;20.50;99.90
51615;DHT22;37695;52.960;6.188;2022-09-14T13:35:56;20.50;99.90
51615;DHT22;37695;52.960;6.188;2022-09-14T13:40:53;20.30;99.90
51615;DHT22;37695;52.960;6.188;2022-09-14T13:43:20;20.20;99.90
51615;DHT22;37695;52.960;6.188;2022-09-14T13:45:48;20.20;99.90
51615;DHT22;37695;52.960;6.188;2022-09-14T13:48:15;20.10;99.90
51615;DHT22;37695;52.960;6.188;2022-09-14T13:50:49;20.10;99.90
51615;DHT22;37695;52.960;6.188;2022-09-14T13:58:48;19.80;99.90
51615;DHT22;37695;52.960;6.188;2022-09-14T14:01:27;19.80;99.90
51615;DHT22;37695;52.960;6.188;2022-09-14T14:03:53;19.80;99.90
51615;DHT22;37695;52.960;6.188;2022-09-14T14:06:20;19.90;99.90
51615;DHT22;37695;52.960;6.188;2022-09-14T14:08:53;19.90;99.90
51615;DHT22;37695;52.960;6.188;2022-09-14T14:11:36;20.10;99.90
51615;DHT22;37695;52.960;6.188;2022-09-14T14:16:41;20.20;99.90
51615;DHT22;37695;52.960;6.188;2022-09-14T14:19:28;20.30;99.90
51615;DHT22;37695;52.960;6.188;2022-09-14T14:24:38;20.40;99.90
51615;DHT22;37695;52.960;6.188;2022-09-14T14:27:04;20.40;99.90
51615;DHT22;37695;52.960;6.188;2022-09-14T14:29:29;20.40;99.90
51615;DHT22;37695;52.960;6.188;2022-09-14T14:31:55;20.40;99.90
51615;DHT22;37695;52.960;6.188;2022-09-14T14:34:23;20.40;99.90
51615;DHT22;37695;52.960;6.188;2022-09-14T14:36:50;20.40;99.90
51615;DHT22;37695;52.960;6.188;2022-09-14T14:39:22;20.40;99.90
51615;DHT22;37695;52.960;6.188;2022-09-14T14:41:48;20.30;99.90
51615;DHT22;37695;52.960;6.188;2022-09-14T14:44:20;20.30;99.90
51615;DHT22;37695;52.960;6.188;2022-09-14T14:46:46;20.20;99.90
51615;DHT22;37695;52.960;6.188;2022-09-14T14:49:17;20.30;99.90
51615;DHT22;37695;52.960;6.188;2022-09-14T14:51:44;20.30;99.90
51615;DHT22;37695;52.960;6.188;2022-09-14T14:54:10;20.30;99.90
51615;DHT22;37695;52.960;6.188;2022-09-14T14:56:36;20.30;99.90
51615;DHT22;37695;52.960;6.188;2022-09-14T14:59:13;20.20;99.90
51615;DHT22;37695;52.960;6.188;2022-09-14T15:01:39;20.20;99.90
51615;DHT22;37695;52.960;6.188;2022-09-14T15:04:04;20.10;99.90
51615;DHT22;37695;52.960;6.188;2022-09-14T15:06:30;20.10;99.90
51615;DHT22;37695;52.960;6.188;2022-09-14T15:08:55;20.00;99.90
51615;DHT22;37695;52.960;6.188;2022-09-14T15:11:21;20.00;99.90
51615;DHT22;37695;52.960;6.188;2022-09-14T15:13:48;20.00;99.90
51615;DHT22;37695;52.960;6.188;2022-09-14T15:16:14;20.00;99.90
51615;DHT22;37695;52.960;6.188;2022-09-14T15:18:40;20.00;99.90
51615;DHT22;37695;52.960;6.188;2022-09-14T15:21:06;19.90;99.90
51615;DHT22;37695;52.960;6.188;2022-09-14T15:23:31;19.90;99.90
51615;DHT22;37695;52.960;6.188;2022-09-14T15:25:57;19.90;99.90
51615;DHT22;37695;52.960;6.188;2022-09-14T15:28:23;19.80;99.90
51615;DHT22;37695;52.960;6.188;2022-09-14T15:30:48;19.80;99.90
51615;DHT22;37695;52.960;6.188;2022-09-14T15:33:14;19.80;99.90
51615;DHT22;37695;52.960;6.188;2022-09-14T15:35:39;19.70;99.90
51615;DHT22;37695;52.960;6.188;2022-09-14T15:38:05;19.70;99.90
51615;DHT22;37695;52.960;6.188;2022-09-14T15:40:31;19.70;99.90
51615;DHT22;37695;52.960;6.188;2022-09-14T15:42:57;19.60;99.90
51615;DHT22;37695;52.960;6.188;2022-09-14T15:45:23;19.60;99.90
51615;DHT22;37695;52.960;6.188;2022-09-14T15:47:48;19.50;99.90
51615;DHT22;37695;52.960;6.188;2022-09-14T15:50:14;19.40;99.90
51615;DHT22;37695;52.960;6.188;2022-09-14T15:52:40;19.30;99.90
51615;DHT22;37695;52.960;6.188;2022-09-14T15:55:08;19.30;99.90
51615;DHT22;37695;52.960;6.188;2022-09-14T15:57:34;19.20;99.90
51615;DHT22;37695;52.960;6.188;2022-09-14T16:00:02;19.20;99.90
51615;DHT22;37695;52.960;6.188;2022-09-14T16:02:29;19.10;99.90
51615;DHT22;37695;52.960;6.188;2022-09-14T16:04:55;19.10;99.90
51615;DHT22;37695;52.960;6.188;2022-09-14T16:07:20;19.10;99.90
51615;DHT22;37695;52.960;6.188;2022-09-14T16:09:46;19.00;99.90
51615;DHT22;37695;52.960;6.188;2022-09-14T16:12:12;19.00;99.90
51615;DHT22;37695;52.960;6.188;2022-09-14T16:14:38;18.90;99.90
51615;DHT22;37695;52.960;6.188;2022-09-14T16:17:04;18.90;99.90
51615;DHT22;37695;52.960;6.188;2022-09-14T16:19:30;18.90;99.90
51615;DHT22;37695;52.960;6.188;2022-09-14T16:21:56;18.90;99.90
51615;DHT22;37695;52.960;6.188;2022-09-14T16:24:22;18.80;99.90
51615;DHT22;37695;52.960;6.188;2022-09-14T16:26:48;18.80;99.90
51615;DHT22;37695;52.960;6.188;2022-09-14T16:29:16;18.80;99.90
51615;DHT22;37695;52.960;6.188;2022-09-14T16:31:43;18.70;99.90
51615;DHT22;37695;52.960;6.188;2022-09-14T16:34:15;18.70;99.90
51615;DHT22;37695;52.960;6.188;2022-09-14T16:36:42;18.70;99.90
51615;DHT22;37695;52.960;6.188;2022-09-14T16:39:19;18.70;99.90
51615;DHT22;37695;52.960;6.188;2022-09-14T16:41:45;18.60;99.90
51615;DHT22;37695;52.960;6.188;2022-09-14T16:44:18;18.60;99.90
51615;DHT22;37695;52.960;6.188;2022-09-14T16:46:44;18.60;99.90
51615;DHT22;37695;52.960;6.188;2022-09-14T16:49:10;18.50;99.90
51615;DHT22;37695;52.960;6.188;2022-09-14T16:51:37;18.40;99.90
51615;DHT22;37695;52.960;6.188;2022-09-14T16:54:02;18.40;99.90
51615;DHT22;37695;52.960;6.188;2022-09-14T16:56:31;18.30;99.90
51615;DHT22;37695;52.960;6.188;2022-09-14T16:58:58;18.30;99.90
51615;DHT22;37695;52.960;6.188;2022-09-14T17:01:29;18.30;99.90
51615;DHT22;37695;52.960;6.188;2022-09-14T17:03:59;18.30;99.90
51615;DHT22;37695;52.960;6.188;2022-09-14T17:06:27;18.20;99.90
51615;DHT22;37695;52.960;6.188;2022-09-14T17:08:56;18.20;99.90
51615;DHT22;37695;52.960;6.188;2022-09-14T17:11:23;18.10;99.90
51615;DHT22;37695;52.960;6.188;2022-09-14T17:13:48;18.10;99.90
51615;DHT22;37695;52.960;6.188;2022-09-14T17:16:18;18.10;99.90
51615;DHT22;37695;52.960;6.188;2022-09-14T17:18:46;18.10;99.90
51615;DHT22;37695;52.960;6.188;2022-09-14T17:21:17;18.10;99.90
51615;DHT22;37695;52.960;6.188;2022-09-14T17:23:44;18.00;99.90
51615;DHT22;37695;52.960;6.188;2022-09-14T17:26:11;18.00;99.90
51615;DHT22;37695;52.960;6.188;2022-09-14T17:28:38;18.00;99.90
51615;DHT22;37695;52.960;6.188;2022-09-14T17:31:05;18.00;99.90
51615;DHT22;37695;52.960;6.188;2022-09-14T17:33:32;18.00;99.90
51615;DHT22;37695;52.960;6.188;2022-09-14T17:36:00;18.00;99.90
51615;DHT22;37695;52.960;6.188;2022-09-14T17:38:30;18.00;99.90
51615;DHT22;37695;52.960;6.188;2022-09-14T17:43:36;17.90;99.90
51615;DHT22;37695;52.960;6.188;2022-09-14T17:46:03;17.80;99.90
51615;DHT22;37695;52.960;6.188;2022-09-14T17:48:35;17.70;99.90
51615;DHT22;37695;52.960;6.188;2022-09-14T17:51:10;17.70;99.90
51615;DHT22;37695;52.960;6.188;2022-09-14T17:53:41;17.70;99.90
51615;DHT22;37695;52.960;6.188;2022-09-14T17:56:09;17.60;99.90
51615;DHT22;37695;52.960;6.188;2022-09-14T17:58:36;17.50;99.90
51615;DHT22;37695;52.960;6.188;2022-09-14T18:01:28;17.50;99.90
51615;DHT22;37695;52.960;6.188;2022-09-14T18:03:55;17.40;99.90
51615;DHT22;37695;52.960;6.188;2022-09-14T18:06:21;17.30;99.90
51615;DHT22;37695;52.960;6.188;2022-09-14T18:08:52;17.20;99.90
51615;DHT22;37695;52.960;6.188;2022-09-14T18:11:19;17.20;99.90
51615;DHT22;37695;52.960;6.188;2022-09-14T18:13:46;17.00;99.90